Time;durP1;ratioP1;P1;durP2;ratioP2;P2;SDS_P1;SDS_P2;PMS_P1;PMS_P2;Temp;Humidity;BMP_temperature;BMP_pressure;BME280_temperature;BME280_humidity;BME280_pressure;Samples;Min_cycle;Max_cycle;Signal;HPM_P1;HPM_P2
2023/01/26 00:00:52;;;;;;;23.20;11.45;;;;;;;-1.10;100.00;101636.00;5086652;28;20048;-79
2023/01/26 00:03:18;;;;;;;27.40;13.18;;;;;;;-0.80;100.00;101662.00;5084668;28;20519;-78
2023/01/26 00:05:44;;;;;;;22.35;13.15;;;;;;;-0.80;100.00;101652.59;5079503;28;20048;-78
2023/01/26 00:08:11;;;;;;;27.42;13.23;;;;;;;-0.75;100.00;101640.00;5085665;28;20071;-78
2023/01/26 00:10:38;;;;;;;23.23;11.75;;;;;;;-1.77;100.00;101511.41;5084742;28;20118;-78
2023/01/26 00:13:05;;;;;;;25.20;12.73;;;;;;;-1.68;100.00;101517.19;5087193;28;20039;-76
2023/01/26 00:15:34;;;;;;;28.50;14.68;;;;;;;-1.66;100.00;101505.31;5089871;28;20105;-78
2023/01/26 00:18:00;;;;;;;26.10;12.20;;;;;;;-1.29;100.00;101502.56;5090277;28;20060;-75
2023/01/26 00:20:26;;;;;;;22.40;13.35;;;;;;;-0.96;100.00;101618.88;5088879;28;20050;-75
2023/01/26 00:22:52;;;;;;;18.25;10.80;;;;;;;-1.61;100.00;101514.22;5088852;28;20824;-75
2023/01/26 00:25:18;;;;;;;25.15;13.20;;;;;;;-0.94;100.00;101622.47;5087706;28;20032;-76
2023/01/26 00:27:43;;;;;;;19.88;9.75;;;;;;;-1.62;100.00;101538.16;5084209;28;20499;-75
2023/01/26 00:30:09;;;;;;;17.90;12.18;;;;;;;-0.99;100.00;101665.06;5087172;28;20118;-75
2023/01/26 00:32:35;;;;;;;21.00;11.25;;;;;;;-0.95;100.00;101642.19;5083496;28;20048;-77
2023/01/26 00:35:01;;;;;;;20.77;10.18;;;;;;;-1.43;100.00;101547.09;5077373;28;20058;-77
2023/01/26 00:37:26;;;;;;;22.10;11.68;;;;;;;-1.66;100.00;101520.75;5080426;28;20039;-75
2023/01/26 00:39:52;;;;;;;19.88;10.45;;;;;;;-1.40;100.00;101534.47;5084113;28;20040;-80
2023/01/26 00:42:17;;;;;;;17.73;10.45;;;;;;;-1.07;100.00;101629.38;5084646;28;20419;-76
2023/01/26 00:44:43;;;;;;;23.20;13.05;;;;;;;-1.05;100.00;101624.34;5083960;28;20051;-75
2023/01/26 00:47:11;;;;;;;26.38;11.90;;;;;;;-0.83;100.00;101625.75;5082909;28;20044;-75
2023/01/26 00:49:37;;;;;;;25.70;13.13;;;;;;;-1.50;100.00;101514.91;5081321;28;20050;-74
2023/01/26 00:52:03;;;;;;;21.02;12.30;;;;;;;-0.76;100.00;101661.44;5083676;28;20575;-74
2023/01/26 00:54:28;;;;;;;22.40;13.25;;;;;;;-0.63;100.00;101653.72;5084835;28;20048;-76
2023/01/26 00:56:54;;;;;;;25.67;11.38;;;;;;;-0.69;100.00;101643.88;5082891;28;20056;-74
2023/01/26 00:59:20;;;;;;;33.15;13.75;;;;;;;-1.13;100.00;101608.34;5083780;28;20132;-76
2023/01/26 01:01:46;;;;;;;23.88;12.80;;;;;;;-1.77;100.00;101485.69;5080521;28;20396;-75
2023/01/26 01:04:12;;;;;;;24.77;10.23;;;;;;;-1.59;100.00;101514.31;5079546;28;20036;-74
2023/01/26 01:06:37;;;;;;;26.90;14.38;;;;;;;-0.93;100.00;101630.28;5093502;28;20048;-76
2023/01/26 01:09:03;;;;;;;19.95;10.48;;;;;;;-1.91;100.00;101464.19;5084577;28;20083;-80
2023/01/26 01:11:28;;;;;;;27.27;14.23;;;;;;;-0.88;100.00;101628.91;5080282;28;20136;-76
2023/01/26 01:13:54;;;;;;;22.65;13.35;;;;;;;-1.49;100.00;101524.44;5087674;28;21705;-77
2023/01/26 01:16:19;;;;;;;22.40;10.23;;;;;;;-1.27;100.00;101568.81;5090003;28;20024;-78
2023/01/26 01:18:45;;;;;;;25.40;12.48;;;;;;;-0.92;100.00;101626.03;5086622;28;20127;-77
2023/01/26 01:21:15;;;;;;;27.52;13.70;;;;;;;-1.11;100.00;101587.88;5086348;28;20117;-75
2023/01/26 01:23:42;;;;;;;23.45;10.48;;;;;;;-1.63;100.00;101494.34;5092602;28;20056;-77
2023/01/26 01:26:09;;;;;;;31.17;13.77;;;;;;;-1.18;100.00;101521.31;5085645;28;20059;-76
2023/01/26 01:28:35;;;;;;;23.20;12.07;;;;;;;-0.95;100.00;101556.28;5083205;28;20094;-78
2023/01/26 01:31:08;;;;;;;23.38;12.55;;;;;;;-1.06;100.00;101516.94;5078915;28;20127;-75
2023/01/26 01:33:33;;;;;;;35.25;12.98;;;;;;;-0.42;100.00;101610.38;5083258;28;20048;-76
2023/01/26 01:36:02;;;;;;;26.63;13.48;;;;;;;-0.29;100.00;101607.75;5078543;28;20586;-74
2023/01/26 01:38:28;;;;;;;25.58;12.55;;;;;;;-1.11;100.00;101497.72;5078855;28;20112;-76
2023/01/26 01:40:54;;;;;;;23.55;13.93;;;;;;;-0.93;100.00;101613.94;5076145;28;20268;-78
2023/01/26 01:43:20;;;;;;;20.20;10.65;;;;;;;-0.98;100.00;101617.91;5078798;28;20078;-76
2023/01/26 01:45:47;;;;;;;26.25;11.40;;;;;;;-1.65;100.00;101475.31;5078506;28;20052;-76
2023/01/26 01:48:19;;;;;;;23.10;11.82;;;;;;;-0.85;100.00;101605.03;5084421;28;20076;-76
2023/01/26 01:50:45;;;;;;;26.95;13.05;;;;;;;-1.07;100.00;101584.72;5084659;28;20555;-75
2023/01/26 01:53:23;;;;;;;31.08;14.30;;;;;;;-0.87;100.00;101599.78;5085476;28;20098;-76
2023/01/26 01:55:53;;;;;;;20.85;12.50;;;;;;;-1.26;100.00;101461.59;5080689;28;20096;-76
2023/01/26 01:58:19;;;;;;;20.67;12.20;;;;;;;-1.04;100.00;101572.03;5082468;28;20051;-79
2023/01/26 02:00:44;;;;;;;31.75;16.30;;;;;;;-1.31;100.00;101492.19;5081976;28;20039;-80
2023/01/26 02:03:10;;;;;;;26.80;15.63;;;;;;;-1.36;100.00;101465.25;5084424;28;20052;-75
2023/01/26 02:06:04;;;;;;;36.42;17.65;;;;;;;-0.85;100.00;101567.25;5085159;28;20044;-77
2023/01/26 02:08:37;;;;;;;24.70;11.88;;;;;;;-1.40;100.00;101446.94;5073827;28;20055;-75
2023/01/26 02:11:35;;;;;;;27.38;12.45;;;;;;;-0.94;100.00;101556.38;5084352;28;20048;-75
2023/01/26 02:14:07;;;;;;;31.40;15.88;;;;;;;-1.63;100.00;101418.03;5069626;28;20104;-77
2023/01/26 02:16:33;;;;;;;28.00;14.25;;;;;;;-0.86;100.00;101544.88;5079817;28;20043;-76
2023/01/26 02:18:59;;;;;;;28.13;15.57;;;;;;;-0.87;100.00;101553.41;5083426;28;20044;-74
2023/01/26 02:21:26;;;;;;;33.38;15.45;;;;;;;-1.26;100.00;101489.91;5081849;28;20048;-77
2023/01/26 02:23:54;;;;;;;22.45;14.60;;;;;;;-0.98;100.00;101541.53;5083385;28;20043;-75
2023/01/26 02:26:25;;;;;;;29.08;14.68;;;;;;;-1.10;100.00;101503.00;5078530;28;20048;-73
2023/01/26 02:28:51;;;;;;;24.23;12.20;;;;;;;-1.41;100.00;101470.88;5078165;28;20074;-78
2023/01/26 02:31:17;;;;;;;30.48;15.23;;;;;;;-0.99;100.00;101508.81;5078784;28;20047;-77
2023/01/26 02:33:44;;;;;;;35.03;18.15;;;;;;;-1.12;100.00;101483.97;5081494;28;20048;-75
2023/01/26 02:36:24;;;;;;;34.50;18.10;;;;;;;-1.22;100.00;101460.09;5073368;28;20052;-77
2023/01/26 02:39:31;;;;;;;26.15;14.80;;;;;;;-0.84;100.00;101493.47;5075429;28;20403;-77
2023/01/26 02:44:43;;;;;;;23.67;14.68;;;;;;;-1.89;100.00;101344.31;5076629;28;20148;-79
2023/01/26 02:47:14;;;;;;;30.65;14.90;;;;;;;-1.59;100.00;101368.56;5079748;28;20093;-75
2023/01/26 02:49:51;;;;;;;30.58;13.98;;;;;;;-1.16;100.00;101453.66;5085069;28;20081;-75
2023/01/26 02:52:24;;;;;;;36.47;16.42;;;;;;;-1.64;100.00;101349.34;5077705;28;20475;-77
2023/01/26 02:55:32;;;;;;;33.33;18.13;;;;;;;-1.73;100.00;101352.22;5076601;28;20053;-75
2023/01/26 02:57:39;;;;;;;31.88;16.33;;;;;;;-1.77;100.00;101351.94;5077951;28;20044;-80
2023/01/26 03:00:11;;;;;;;29.23;14.45;;;;;;;-1.08;100.00;101478.22;5081129;28;20061;-75
2023/01/26 03:02:38;;;;;;;28.55;14.60;;;;;;;-1.28;100.00;101453.75;5084787;28;20060;-77
2023/01/26 03:05:04;;;;;;;29.38;15.60;;;;;;;-2.02;100.00;101318.56;5079997;28;20068;-78
2023/01/26 03:07:30;;;;;;;30.77;16.23;;;;;;;-1.20;100.00;101451.66;5079841;28;20051;-77
2023/01/26 03:09:57;;;;;;;32.17;17.92;;;;;;;-0.98;100.00;101476.25;5077081;28;20102;-80
2023/01/26 03:12:23;;;;;;;34.05;16.08;;;;;;;-1.29;100.00;101449.41;5081456;28;20534;-77
2023/01/26 03:15:33;;;;;;;33.88;17.90;;;;;;;-1.83;100.00;101306.09;5076542;28;20051;-75
2023/01/26 03:17:34;;;;;;;32.70;16.00;;;;;;;-1.05;100.00;101433.75;5082003;28;20047;-75
2023/01/26 03:28:12;;;;;;;30.75;15.55;;;;;;;-1.14;100.00;101446.91;5085456;28;20093;-76
2023/01/26 03:30:38;;;;;;;28.50;15.30;;;;;;;-1.92;100.00;101314.13;5085436;28;20048;-80
2023/01/26 03:33:04;;;;;;;32.20;16.92;;;;;;;-1.71;100.00;101321.44;5087614;28;20040;-77
2023/01/26 03:35:31;;;;;;;33.08;16.20;;;;;;;-1.04;100.00;101437.22;5085432;28;20568;-75
2023/01/26 03:37:56;;;;;;;28.35;14.55;;;;;;;-1.25;100.00;101386.13;5078824;28;20128;-77
2023/01/26 03:56:49;;;;;;;29.00;14.50;;;;;;;-1.35;100.00;101345.16;5092498;28;20156;-80
2023/01/26 03:59:24;;;;;;;31.20;16.60;;;;;;;-2.08;100.00;101225.59;5078668;28;20468;-75
2023/01/26 04:10:02;;;;;;;29.98;16.33;;;;;;;-1.82;100.00;101253.88;5087719;28;20047;-75
2023/01/26 04:12:27;;;;;;;33.13;14.77;;;;;;;-1.08;100.00;101361.41;5089246;28;20040;-76
2023/01/26 04:23:05;;;;;;;30.92;13.38;;;;;;;-1.72;100.00;101252.78;5083168;28;20128;-82
2023/01/26 04:25:31;;;;;;;30.88;13.50;;;;;;;-1.93;100.00;101198.31;5088151;28;20393;-77
2023/01/26 04:27:56;;;;;;;23.35;13.32;;;;;;;-1.35;100.00;101296.25;5087097;28;20051;-74
2023/01/26 04:30:22;;;;;;;38.17;16.17;;;;;;;-1.59;100.00;101254.41;5086654;28;20051;-75
2023/01/26 04:32:50;;;;;;;28.65;17.60;;;;;;;-1.23;100.00;101299.56;5085005;28;20040;-76
2023/01/26 04:35:15;;;;;;;35.47;16.40;;;;;;;-2.47;100.00;101091.22;5077231;28;20083;-76
2023/01/26 04:37:40;;;;;;;36.33;18.90;;;;;;;-1.99;100.00;101167.03;5084529;28;20060;-76
2023/01/26 04:40:07;;;;;;;33.35;15.00;;;;;;;-1.14;100.00;101331.03;5089135;28;20466;-75
2023/01/26 04:42:32;;;;;;;36.70;16.30;;;;;;;-1.35;100.00;101278.22;5082733;28;20067;-76
2023/01/26 04:44:58;;;;;;;30.08;14.18;;;;;;;-1.11;100.00;101310.63;5083050;28;20456;-74
2023/01/26 04:47:23;;;;;;;37.85;18.20;;;;;;;-2.47;100.00;101074.13;5081083;28;20058;-76
2023/01/26 04:49:49;;;;;;;36.35;17.13;;;;;;;-1.17;100.00;101302.53;5078220;28;20059;-80
2023/01/26 04:52:14;;;;;;;31.38;19.40;;;;;;;-1.30;100.00;101292.28;5082395;28;20032;-73
2023/01/26 04:54:41;;;;;;;24.65;17.08;;;;;;;-1.41;100.00;101272.69;5079268;28;20556;-78
2023/01/26 04:57:07;;;;;;;30.17;16.73;;;;;;;-1.14;100.00;101338.78;5082648;28;20056;-78
2023/01/26 04:59:33;;;;;;;28.42;15.00;;;;;;;-1.21;100.00;101295.41;5086002;28;20087;-76
2023/01/26 05:01:58;;;;;;;31.75;18.00;;;;;;;-1.73;100.00;101200.44;5078142;28;20048;-79
2023/01/26 05:04:24;;;;;;;27.60;14.52;;;;;;;-1.04;100.00;101309.31;5081796;28;20032;-77
2023/01/26 05:06:49;;;;;;;32.10;14.15;;;;;;;-1.28;100.00;101260.69;5085664;28;20044;-81
2023/01/26 05:09:15;;;;;;;29.15;15.10;;;;;;;-1.24;100.00;101271.16;5084088;28;20222;-78
2023/01/26 05:11:40;;;;;;;31.75;19.25;;;;;;;-1.24;100.00;101282.38;5080545;28;20818;-75
2023/01/26 05:14:05;;;;;;;32.65;17.77;;;;;;;-1.27;100.00;101258.97;5079362;28;20048;-79
2023/01/26 05:16:31;;;;;;;28.25;14.10;;;;;;;-1.89;100.00;101137.69;5083518;28;20032;-78
2023/01/26 05:18:56;;;;;;;44.70;18.60;;;;;;;-1.84;100.00;101159.41;5084210;28;20052;-75
2023/01/26 05:21:26;;;;;;;28.08;16.45;;;;;;;-1.40;100.00;101256.47;5085958;28;20040;-76
2023/01/26 05:23:52;;;;;;;33.33;17.92;;;;;;;-1.13;100.00;101290.72;5083855;28;20131;-75
2023/01/26 05:26:18;;;;;;;29.17;18.27;;;;;;;-1.91;100.00;101158.13;5084366;28;20054;-75
2023/01/26 05:28:43;;;;;;;33.88;18.83;;;;;;;-1.03;100.00;101284.44;5080080;28;20032;-79
2023/01/26 05:31:09;;;;;;;30.23;16.67;;;;;;;-1.29;100.00;101265.72;5080529;28;20040;-75
2023/01/26 05:33:35;;;;;;;25.58;14.98;;;;;;;-1.15;100.00;101295.81;5082931;28;20047;-82
2023/01/26 05:36:04;;;;;;;30.73;16.45;;;;;;;-1.42;100.00;101242.63;5078729;28;20048;-77
2023/01/26 05:38:30;;;;;;;31.40;16.13;;;;;;;-1.25;100.00;101275.41;5080510;28;20401;-75
2023/01/26 05:40:55;;;;;;;29.75;15.40;;;;;;;-2.00;100.00;101137.88;5081554;28;20051;-78
2023/01/26 05:43:21;;;;;;;32.00;16.95;;;;;;;-1.71;100.00;101177.34;5082986;28;20074;-82
2023/01/26 05:45:46;;;;;;;34.78;20.23;;;;;;;-1.21;100.00;101249.06;5082608;28;20399;-79
2023/01/26 05:48:12;;;;;;;30.25;16.38;;;;;;;-1.22;100.00;101242.13;5084238;28;20352;-81
2023/01/26 05:50:37;;;;;;;31.65;13.43;;;;;;;-1.17;100.00;101266.50;5083652;28;20396;-79
2023/01/26 05:53:03;;;;;;;26.67;17.40;;;;;;;-1.81;100.00;101164.75;5082840;28;20048;-76
2023/01/26 05:55:28;;;;;;;34.90;17.67;;;;;;;-1.53;100.00;101223.94;5082809;28;20497;-77
2023/01/26 05:57:54;;;;;;;32.47;15.38;;;;;;;-1.31;100.00;101255.34;5075791;28;20540;-77
2023/01/26 06:00:20;;;;;;;33.15;18.25;;;;;;;-1.16;100.00;101277.66;5082051;28;20102;-81
2023/01/26 06:02:45;;;;;;;26.88;16.60;;;;;;;-1.04;100.00;101287.84;5083830;28;20040;-76
2023/01/26 06:05:13;;;;;;;30.17;17.70;;;;;;;-1.16;100.00;101263.09;5081052;28;20052;-77
2023/01/26 06:07:41;;;;;;;28.17;16.20;;;;;;;-1.03;100.00;101271.56;5086927;28;20043;-76
2023/01/26 06:10:07;;;;;;;31.90;18.55;;;;;;;-1.06;100.00;101264.53;5089784;28;20024;-77
2023/01/26 06:12:34;;;;;;;36.25;16.25;;;;;;;-1.95;100.00;101127.88;5085228;28;20334;-74
2023/01/26 06:15:01;;;;;;;32.60;17.60;;;;;;;-2.03;100.00;101094.00;5082663;28;20522;-76
2023/01/26 06:17:27;;;;;;;30.85;17.60;;;;;;;-1.72;100.00;101131.88;5088392;28;20058;-74
2023/01/26 06:19:53;;;;;;;29.20;15.40;;;;;;;-1.07;100.00;101260.22;5083991;28;20058;-79
2023/01/26 06:22:18;;;;;;;34.67;16.92;;;;;;;-1.11;100.00;101274.56;5082200;28;20476;-75
2023/01/26 06:24:45;;;;;;;28.30;15.13;;;;;;;-1.86;100.00;101133.59;5083370;28;20048;-75
2023/01/26 06:27:15;;;;;;;40.10;17.30;;;;;;;-1.80;100.00;101122.81;5078111;28;20137;-75
2023/01/26 06:29:41;;;;;;;46.03;19.27;;;;;;;-1.00;100.00;101248.59;5075652;28;20040;-78
2023/01/26 06:32:12;;;;;;;28.13;14.88;;;;;;;-1.37;100.00;101203.47;5083665;28;20052;-76
2023/01/26 06:34:38;;;;;;;32.33;18.75;;;;;;;-1.90;100.00;101085.31;5080532;28;20047;-81
2023/01/26 06:37:03;;;;;;;24.63;12.93;;;;;;;-1.74;100.00;101139.47;5073667;28;20036;-75
2023/01/26 06:39:29;;;;;;;35.88;21.75;;;;;;;-1.01;100.00;101265.72;5080273;28;20080;-78
2023/01/26 06:41:55;;;;;;;41.10;20.50;;;;;;;-0.89;100.00;101274.19;5075916;28;20040;-82
2023/01/26 06:44:20;;;;;;;30.73;17.85;;;;;;;-0.98;100.00;101241.84;5075567;28;20415;-80
2023/01/26 06:46:46;;;;;;;40.65;16.92;;;;;;;-0.86;100.00;101263.19;5077616;28;20844;-77
2023/01/26 06:49:12;;;;;;;41.85;18.92;;;;;;;-1.70;100.00;101127.69;5074655;28;20047;-77
2023/01/26 06:51:47;;;;;;;33.50;15.88;;;;;;;-0.77;100.00;101271.47;5071977;28;20044;-78
2023/01/26 06:54:14;;;;;;;34.08;16.52;;;;;;;-0.86;100.00;101246.03;5074901;28;20117;-77
2023/01/26 06:56:39;;;;;;;45.55;19.25;;;;;;;-1.69;100.00;101111.47;5073347;28;20501;-77
2023/01/26 06:59:05;;;;;;;34.53;16.75;;;;;;;-0.93;100.00;101268.75;5077817;28;20146;-75
2023/01/26 07:01:38;;;;;;;39.60;17.30;;;;;;;-1.10;100.00;101213.66;5081705;28;20552;-76
2023/01/26 07:04:03;;;;;;;31.30;15.63;;;;;;;-0.94;100.00;101244.66;5085847;28;20134;-75
2023/01/26 07:06:29;;;;;;;45.33;16.65;;;;;;;-1.68;100.00;101127.81;5081228;28;20617;-81
2023/01/26 07:08:54;;;;;;;25.55;15.65;;;;;;;-1.88;100.00;101094.03;5076393;28;20048;-74
2023/01/26 07:11:20;;;;;;;29.98;16.92;;;;;;;-0.98;100.00;101227.28;5081986;28;20055;-75
2023/01/26 07:13:46;;;;;;;32.03;17.08;;;;;;;-0.98;100.00;101244.44;5084101;28;20399;-80
2023/01/26 07:16:13;;;;;;;32.50;16.75;;;;;;;-1.05;100.00;101209.69;5090139;28;20039;-79
2023/01/26 07:18:39;;;;;;;41.67;19.27;;;;;;;-0.95;100.00;101200.81;5089665;28;20073;-76
2023/01/26 07:21:10;;;;;;;41.75;16.60;;;;;;;-1.48;100.00;101096.41;5087367;28;20518;-77
2023/01/26 07:23:36;;;;;;;26.20;14.52;;;;;;;-1.60;100.00;101082.81;5087014;28;20410;-76
2023/01/26 07:26:02;;;;;;;27.65;17.85;;;;;;;-1.72;100.00;101062.41;5086206;28;20048;-76
2023/01/26 07:28:29;;;;;;;30.02;14.10;;;;;;;-1.31;100.00;101131.78;5081826;28;20024;-76
2023/01/26 07:30:58;;;;;;;33.80;16.80;;;;;;;-1.60;100.00;101094.00;5083567;28;20043;-75
2023/01/26 07:33:24;;;;;;;42.17;20.17;;;;;;;-0.96;100.00;101183.56;5084517;28;20048;-77
2023/01/26 07:35:53;;;;;;;29.23;16.35;;;;;;;-1.88;100.00;101031.41;5082894;28;20494;-77
2023/01/26 07:38:18;;;;;;;29.73;14.50;;;;;;;-1.01;100.00;101162.69;5090060;28;20060;-78
2023/01/26 07:40:44;;;;;;;34.30;18.20;;;;;;;-0.95;100.00;101195.66;5094161;28;20028;-75
2023/01/26 07:43:10;;;;;;;34.92;20.23;;;;;;;-1.61;100.00;101069.09;5089580;28;20071;-75
2023/01/26 07:45:36;;;;;;;70.13;18.95;;;;;;;-0.82;100.00;101174.97;5087494;28;20562;-75
2023/01/26 07:48:02;;;;;;;43.25;20.02;;;;;;;-1.11;100.00;101158.69;5098763;28;20108;-73
2023/01/26 07:50:27;;;;;;;40.33;18.48;;;;;;;-1.46;100.00;101099.09;5085046;28;20128;-75
2023/01/26 07:52:52;;;;;;;53.67;21.05;;;;;;;-1.65;100.00;101071.38;5088780;28;20040;-77
2023/01/26 07:55:24;;;;;;;51.70;19.27;;;;;;;-1.77;100.00;101046.69;5085029;28;20103;-75
2023/01/26 07:57:50;;;;;;;47.03;20.73;;;;;;;-1.67;100.00;101057.53;5090042;28;20063;-77
2023/01/26 08:00:16;;;;;;;42.78;18.13;;;;;;;-1.71;100.00;101025.59;5088227;28;20051;-77
2023/01/26 08:02:42;;;;;;;48.97;18.25;;;;;;;-1.31;100.00;101107.72;5080769;28;20067;-75
2023/01/26 08:05:08;;;;;;;34.53;18.27;;;;;;;-1.24;100.00;101119.25;5084607;28;20086;-75
2023/01/26 08:07:33;;;;;;;38.95;19.45;;;;;;;-1.00;100.00;101148.16;5083530;28;23456;-79
2023/01/26 08:09:59;;;;;;;55.75;19.27;;;;;;;-1.06;100.00;101146.97;5085130;28;20036;-77
2023/01/26 08:12:25;;;;;;;46.65;20.33;;;;;;;-0.99;100.00;101149.91;5085808;28;20456;-76
2023/01/26 08:14:50;;;;;;;30.42;15.75;;;;;;;-1.16;100.00;101111.19;5085853;28;20089;-79
2023/01/26 08:17:17;;;;;;;31.77;14.68;;;;;;;-2.13;100.00;100942.56;5086720;28;20036;-78
2023/01/26 08:19:44;;;;;;;40.67;18.92;;;;;;;-1.34;100.00;101094.66;5079738;28;20029;-77
2023/01/26 08:22:10;;;;;;;33.35;17.40;;;;;;;-1.06;100.00;101107.44;5085701;28;20036;-78
2023/01/26 08:24:36;;;;;;;29.50;15.68;;;;;;;-0.94;100.00;101143.34;5088924;28;20040;-79
2023/01/26 08:27:02;;;;;;;26.83;16.17;;;;;;;-1.01;100.00;101118.03;5088443;28;20052;-78
2023/01/26 08:29:27;;;;;;;36.42;21.25;;;;;;;-2.04;100.00;100913.91;5086731;28;20044;-77
2023/01/26 08:31:53;;;;;;;36.53;19.08;;;;;;;-0.87;100.00;101124.84;5087825;28;20052;-77
2023/01/26 08:34:20;;;;;;;30.45;17.48;;;;;;;-1.12;100.00;101099.41;5079733;28;20036;-78
2023/01/26 08:36:46;;;;;;;47.22;21.05;;;;;;;-1.07;100.00;101104.00;5086958;28;20044;-78
2023/01/26 08:39:11;;;;;;;37.70;20.25;;;;;;;-1.67;100.00;100988.97;5087751;28;20047;-80
2023/01/26 08:41:38;;;;;;;41.22;20.80;;;;;;;-0.89;100.00;101119.63;5087944;28;20047;-79
2023/01/26 08:44:04;;;;;;;37.83;22.25;;;;;;;-1.14;100.00;101094.16;5076272;28;20048;-78
2023/01/26 08:46:29;;;;;;;35.70;18.58;;;;;;;-1.14;100.00;101085.53;5076875;28;20044;-79
2023/01/26 08:48:55;;;;;;;38.38;19.55;;;;;;;-1.93;100.00;100936.00;5083584;28;20163;-79
2023/01/26 08:51:20;;;;;;;28.35;18.02;;;;;;;-1.62;100.00;100981.50;5088120;28;20100;-78
2023/01/26 08:53:46;;;;;;;31.05;18.60;;;;;;;-0.92;100.00;101108.25;5087707;28;20399;-77
2023/01/26 08:56:12;;;;;;;33.60;18.38;;;;;;;-1.01;100.00;101059.66;5080849;28;20056;-79
2023/01/26 08:58:38;;;;;;;37.75;18.10;;;;;;;-0.71;100.00;101103.44;5085248;28;20172;-80
2023/01/26 09:01:10;;;;;;;30.20;17.48;;;;;;;-0.93;100.00;101103.91;5081906;28;20036;-77
2023/01/26 09:03:35;;;;;;;46.28;16.63;;;;;;;-1.27;100.00;101042.72;5086855;28;20567;-79
2023/01/26 09:06:03;;;;;;;40.35;18.25;;;;;;;-1.00;100.00;101081.19;5083490;28;20052;-77
2023/01/26 09:08:28;;;;;;;34.30;18.73;;;;;;;-0.95;100.00;101060.03;5088407;28;20415;-77
2023/01/26 09:10:54;;;;;;;38.28;15.15;;;;;;;-0.81;100.00;101094.31;5087476;28;20040;-78
2023/01/26 09:13:20;;;;;;;34.38;19.25;;;;;;;-0.98;100.00;101046.09;5084341;28;20036;-77
2023/01/26 09:15:45;;;;;;;38.72;17.77;;;;;;;-1.49;100.00;100963.41;5084177;28;20497;-78
2023/01/26 09:18:11;;;;;;;42.10;19.65;;;;;;;-1.00;100.00;101030.56;5084351;28;21064;-76
2023/01/26 09:20:37;;;;;;;38.55;21.33;;;;;;;-1.59;100.00;100902.81;5085417;28;20040;-77
2023/01/26 09:23:03;;;;;;;36.00;17.30;;;;;;;-1.57;100.00;100921.81;5086600;28;20047;-79
2023/01/26 09:25:29;;;;;;;24.48;17.27;;;;;;;-0.92;100.00;101031.84;5086839;28;20032;-76
2023/01/26 09:27:55;;;;;;;44.17;18.67;;;;;;;-1.52;100.00;100917.81;5084317;28;20150;-77
2023/01/26 09:30:21;;;;;;;41.50;16.73;;;;;;;-1.52;100.00;100880.91;5081818;28;20054;-77
2023/01/26 09:32:46;;;;;;;31.90;15.65;;;;;;;-1.56;100.00;100892.69;5085789;28;20381;-79
2023/01/26 09:35:12;;;;;;;44.92;18.30;;;;;;;-0.93;100.00;101006.03;5085214;28;20044;-80
2023/01/26 09:37:37;;;;;;;40.25;19.23;;;;;;;-0.76;100.00;101007.84;5080497;28;20040;-82
2023/01/26 09:40:04;;;;;;;39.60;19.02;;;;;;;-1.13;100.00;100949.13;5088438;28;20386;-79
2023/01/26 09:43:09;;;;;;;40.35;22.90;;;;;;;-0.65;100.00;101023.91;5077740;28;20052;-77
2023/01/26 09:45:50;;;;;;;31.38;17.10;;;;;;;-1.36;100.00;100900.63;5055872;28;20365;-78
2023/01/26 09:48:31;;;;;;;31.48;20.33;;;;;;;-1.09;100.00;100933.06;5083639;28;20139;-80
2023/01/26 09:51:09;;;;;;;30.35;21.90;;;;;;;-1.25;100.00;100902.13;5078455;28;20480;-78
2023/01/26 09:54:17;;;;;;;31.92;16.40;;;;;;;-0.64;100.00;101003.34;5086504;28;20041;-75
2023/01/26 09:56:43;;;;;;;47.90;18.55;;;;;;;-1.05;100.00;100918.69;5077072;28;20594;-81
2023/01/26 09:59:35;;;;;;;34.78;18.73;;;;;;;-0.74;100.00;100958.97;5083734;28;20130;-82
2023/01/26 10:02:23;;;;;;;50.10;19.23;;;;;;;-0.57;100.00;101002.00;5085926;28;20055;-82
2023/01/26 10:04:54;;;;;;;40.50;17.08;;;;;;;-1.32;100.00;100861.41;5084650;28;20134;-84
2023/01/26 10:07:20;;;;;;;52.42;20.33;;;;;;;-0.93;100.00;100903.00;5084775;28;20079;-81
2023/01/26 10:09:48;;;;;;;44.83;20.75;;;;;;;-1.25;100.00;100827.47;5086360;28;20056;-83
2023/01/26 10:12:20;;;;;;;44.97;24.27;;;;;;;-0.51;100.00;100948.22;5074766;28;20090;-80
2023/01/26 10:14:51;;;;;;;53.30;22.98;;;;;;;-1.12;100.00;100845.34;5083889;28;20098;-81
2023/01/26 10:17:38;;;;;;;44.58;17.33;;;;;;;-0.18;100.00;100978.28;5074363;28;20049;-79
2023/01/26 10:20:29;;;;;;;42.70;21.30;;;;;;;-0.10;100.00;100987.28;5083962;28;20131;-81
2023/01/26 10:23:00;;;;;;;41.15;19.42;;;;;;;-0.66;100.00;100836.59;5074579;28;20047;-81
2023/01/26 10:25:35;;;;;;;35.65;19.52;;;;;;;-0.78;100.00;100828.22;5079648;28;20028;-81
2023/01/26 10:28:11;;;;;;;34.20;17.55;;;;;;;-0.74;100.00;100837.88;5080044;28;20052;-82
2023/01/26 10:30:39;;;;;;;63.38;24.63;;;;;;;-0.50;100.00;100854.59;5079488;28;20062;-81
2023/01/26 10:33:14;;;;;;;41.60;19.60;;;;;;;-0.65;100.00;100854.72;5083475;28;20137;-82
2023/01/26 10:35:39;;;;;;;35.10;17.45;;;;;;;-0.50;100.00;100925.91;5071968;28;20078;-81
2023/01/26 10:38:26;;;;;;;47.95;20.88;;;;;;;-0.21;100.00;100973.84;5084596;28;20048;-81
2023/01/26 10:40:51;;;;;;;43.67;16.60;;;;;;;-0.96;100.00;100808.44;5082301;28;20027;-83
2023/01/26 10:43:18;;;;;;;40.47;22.25;;;;;;;-0.83;100.00;100850.28;5084188;28;20032;-82
2023/01/26 10:45:45;;;;;;;41.90;22.40;;;;;;;-0.28;100.00;100918.50;5082120;28;20503;-83
2023/01/26 10:48:18;;;;;;;37.70;19.73;;;;;;;-0.12;100.00;100939.88;5077997;28;20143;-81
2023/01/26 10:50:45;;;;;;;76.78;28.83;;;;;;;0.04;100.00;100920.94;5081495;28;20083;-81
2023/01/26 10:53:23;;;;;;;32.85;19.50;;;;;;;-0.12;100.00;100933.03;5083801;28;20052;-80
2023/01/26 10:56:15;;;;;;;38.15;18.70;;;;;;;-0.11;100.00;100931.38;5086024;28;20039;-79
2023/01/26 10:58:56;;;;;;;52.25;21.27;;;;;;;-1.02;100.00;100771.16;5079507;28;20047;-81
2023/01/26 11:01:26;;;;;;;49.40;21.90;;;;;;;-0.64;100.00;100788.59;5080574;28;20032;-81
2023/01/26 11:04:04;;;;;;;60.05;22.17;;;;;;;0.20;100.00;100905.41;5077014;28;20053;-80
2023/01/26 11:06:30;;;;;;;35.78;19.50;;;;;;;-0.90;100.00;100753.78;5073693;28;20048;-82
2023/01/26 11:09:20;;;;;;;43.63;22.00;;;;;;;-0.13;100.00;100910.63;5082277;28;20189;-80
2023/01/26 11:12:17;;;;;;;52.03;23.38;;;;;;;-0.13;100.00;100858.19;5079518;28;20513;-79
2023/01/26 11:15:18;;;;;;;41.55;19.30;;;;;;;-0.07;100.00;100887.75;5070171;28;20497;-84
2023/01/26 11:18:00;;;;;;;38.25;21.20;;;;;;;-0.81;100.00;100728.47;5080233;28;20457;-83
2023/01/26 11:20:26;;;;;;;44.85;19.45;;;;;;;-0.57;100.00;100771.75;5080687;28;20135;-85
2023/01/26 11:23:00;;;;;;;54.65;26.73;;;;;;;-0.28;100.00;100859.19;5080726;28;20039;-85
2023/01/26 11:25:57;;;;;;;49.47;24.38;;;;;;;-0.09;100.00;100881.63;5081591;28;20032;-83
2023/01/26 11:28:28;;;;;;;30.85;22.00;;;;;;;-0.04;100.00;100875.00;5070749;28;20523;-83
2023/01/26 11:31:12;;;;;;;55.08;24.40;;;;;;;-0.09;100.00;100862.69;5076025;28;20060;-81
2023/01/26 11:33:49;;;;;;;50.92;19.95;;;;;;;-0.81;100.00;100718.19;5077377;28;20086;-83
2023/01/26 11:36:27;;;;;;;38.80;21.70;;;;;;;0.01;100.00;100846.84;5077974;28;20067;-82
2023/01/26 11:39:36;;;;;;;36.45;20.15;;;;;;;0.06;100.00;100842.81;5083309;28;20117;-83
2023/01/26 11:42:24;;;;;;;39.88;22.58;;;;;;;-0.04;100.00;100851.78;5058315;28;20056;-83
2023/01/26 11:45:20;;;;;;;43.20;21.73;;;;;;;0.04;100.00;100825.47;5080725;28;20458;-81
2023/01/26 11:48:10;;;;;;;51.28;20.38;;;;;;;0.01;100.00;100808.16;5083146;28;20109;-83
2023/01/26 11:50:58;;;;;;;58.85;26.98;;;;;;;-0.08;100.00;100780.22;5086654;28;20101;-81
2023/01/26 11:54:02;;;;;;;52.13;21.25;;;;;;;0.25;100.00;100805.88;5087335;28;20053;-81
2023/01/26 11:56:43;;;;;;;34.25;21.55;;;;;;;-0.22;100.00;100722.81;5077290;28;20072;-82